sensor_id;sensor_type;location;lat;lon;timestamp;pressure;altitude;pressure_sealevel;temperature;humidity
8061;BME280;4073;42.626;25.386;2023-09-12T00:01:29;97414.09;;;14.63;81.44
8061;BME280;4073;42.626;25.386;2023-09-12T00:03:58;97399.50;;;14.69;81.54
8061;BME280;4073;42.626;25.386;2023-09-12T00:06:24;97396.50;;;14.71;81.33
8061;BME280;4073;42.626;25.386;2023-09-12T00:08:51;97401.38;;;14.69;81.64
8061;BME280;4073;42.626;25.386;2023-09-12T00:11:17;97408.34;;;14.70;82.45
8061;BME280;4073;42.626;25.386;2023-09-12T00:13:43;97412.78;;;14.61;83.38
8061;BME280;4073;42.626;25.386;2023-09-12T00:16:09;97415.84;;;14.54;83.91
8061;BME280;4073;42.626;25.386;2023-09-12T00:18:36;97406.59;;;14.42;84.77
8061;BME280;4073;42.626;25.386;2023-09-12T00:21:01;97416.13;;;14.53;84.40
8061;BME280;4073;42.626;25.386;2023-09-12T00:23:28;97407.56;;;14.51;84.84
8061;BME280;4073;42.626;25.386;2023-09-12T00:25:53;97412.56;;;14.57;84.04
8061;BME280;4073;42.626;25.386;2023-09-12T00:28:19;97416.38;;;14.56;83.97
8061;BME280;4073;42.626;25.386;2023-09-12T00:30:45;97412.00;;;14.60;83.43
8061;BME280;4073;42.626;25.386;2023-09-12T00:33:10;97407.09;;;14.62;83.63
8061;BME280;4073;42.626;25.386;2023-09-12T00:35:36;97414.88;;;14.64;84.61
8061;BME280;4073;42.626;25.386;2023-09-12T00:38:01;97402.78;;;14.48;85.24
8061;BME280;4073;42.626;25.386;2023-09-12T00:40:27;97409.00;;;14.43;86.01
8061;BME280;4073;42.626;25.386;2023-09-12T00:42:52;97408.06;;;14.34;86.85
8061;BME280;4073;42.626;25.386;2023-09-12T00:45:18;97411.03;;;14.33;87.57
8061;BME280;4073;42.626;25.386;2023-09-12T00:47:44;97410.97;;;14.38;88.39
8061;BME280;4073;42.626;25.386;2023-09-12T00:50:10;97412.28;;;14.40;88.53
8061;BME280;4073;42.626;25.386;2023-09-12T00:52:36;97404.94;;;14.46;89.14
8061;BME280;4073;42.626;25.386;2023-09-12T00:55:03;97405.31;;;14.58;88.44
8061;BME280;4073;42.626;25.386;2023-09-12T00:57:30;97410.03;;;14.66;87.36
8061;BME280;4073;42.626;25.386;2023-09-12T00:59:57;97414.03;;;14.68;87.83
8061;BME280;4073;42.626;25.386;2023-09-12T01:02:24;97415.31;;;14.71;88.26
8061;BME280;4073;42.626;25.386;2023-09-12T01:04:50;97409.00;;;14.62;87.66
8061;BME280;4073;42.626;25.386;2023-09-12T01:07:16;97415.03;;;14.54;86.73
8061;BME280;4073;42.626;25.386;2023-09-12T01:09:41;97414.09;;;14.45;86.98
8061;BME280;4073;42.626;25.386;2023-09-12T01:12:08;97412.84;;;14.37;86.99
8061;BME280;4073;42.626;25.386;2023-09-12T01:14:34;97413.78;;;14.28;86.41
8061;BME280;4073;42.626;25.386;2023-09-12T01:17:00;97412.31;;;14.17;86.89
8061;BME280;4073;42.626;25.386;2023-09-12T01:19:28;97410.53;;;14.07;86.10
8061;BME280;4073;42.626;25.386;2023-09-12T01:27:55;97419.09;;;13.86;88.50
8061;BME280;4073;42.626;25.386;2023-09-12T01:30:22;97410.53;;;13.84;88.89
8061;BME280;4073;42.626;25.386;2023-09-12T01:32:48;97423.41;;;13.87;89.07
8061;BME280;4073;42.626;25.386;2023-09-12T01:35:14;97417.31;;;13.81;89.88
8061;BME280;4073;42.626;25.386;2023-09-12T01:37:39;97418.94;;;13.77;89.99
8061;BME280;4073;42.626;25.386;2023-09-12T01:40:06;97405.59;;;13.67;89.86
8061;BME280;4073;42.626;25.386;2023-09-12T01:42:43;97409.34;;;13.71;90.66
8061;BME280;4073;42.626;25.386;2023-09-12T01:45:12;97413.34;;;13.74;91.59
8061;BME280;4073;42.626;25.386;2023-09-12T01:47:39;97406.38;;;13.73;93.03
8061;BME280;4073;42.626;25.386;2023-09-12T01:50:05;97410.13;;;13.72;92.84
8061;BME280;4073;42.626;25.386;2023-09-12T01:52:33;97406.47;;;13.63;92.86
8061;BME280;4073;42.626;25.386;2023-09-12T01:55:01;97407.56;;;13.62;95.75
8061;BME280;4073;42.626;25.386;2023-09-12T01:57:27;97406.03;;;13.56;96.52
8061;BME280;4073;42.626;25.386;2023-09-12T01:59:53;97410.34;;;13.52;98.21
8061;BME280;4073;42.626;25.386;2023-09-12T02:02:18;97409.84;;;13.50;98.04
8061;BME280;4073;42.626;25.386;2023-09-12T02:05:13;97412.81;;;13.48;99.00
8061;BME280;4073;42.626;25.386;2023-09-12T02:07:39;97413.59;;;13.49;99.49
8061;BME280;4073;42.626;25.386;2023-09-12T02:10:06;97408.56;;;13.42;99.97
8061;BME280;4073;42.626;25.386;2023-09-12T02:12:32;97415.25;;;13.45;99.96
8061;BME280;4073;42.626;25.386;2023-09-12T02:14:57;97418.50;;;13.42;100.00
8061;BME280;4073;42.626;25.386;2023-09-12T02:17:22;97413.66;;;13.44;99.70
8061;BME280;4073;42.626;25.386;2023-09-12T02:19:48;97413.13;;;13.42;100.00
8061;BME280;4073;42.626;25.386;2023-09-12T02:22:14;97415.03;;;13.41;100.00
8061;BME280;4073;42.626;25.386;2023-09-12T02:24:39;97416.41;;;13.39;100.00
8061;BME280;4073;42.626;25.386;2023-09-12T02:27:05;97416.41;;;13.39;100.00
8061;BME280;4073;42.626;25.386;2023-09-12T02:29:30;97410.31;;;13.28;100.00
8061;BME280;4073;42.626;25.386;2023-09-12T02:31:58;97416.03;;;13.22;100.00
8061;BME280;4073;42.626;25.386;2023-09-12T02:34:23;97413.44;;;13.07;100.00
8061;BME280;4073;42.626;25.386;2023-09-12T02:36:48;97408.69;;;12.98;100.00
8061;BME280;4073;42.626;25.386;2023-09-12T02:39:14;97401.94;;;12.96;100.00
8061;BME280;4073;42.626;25.386;2023-09-12T02:41:39;97405.44;;;12.96;100.00
8061;BME280;4073;42.626;25.386;2023-09-12T02:44:05;97410.66;;;12.83;100.00
8061;BME280;4073;42.626;25.386;2023-09-12T02:46:30;97401.00;;;12.82;100.00
8061;BME280;4073;42.626;25.386;2023-09-12T02:48:56;97400.22;;;12.76;100.00
8061;BME280;4073;42.626;25.386;2023-09-12T02:51:21;97411.50;;;12.78;100.00
8061;BME280;4073;42.626;25.386;2023-09-12T02:53:46;97410.63;;;12.88;100.00
8061;BME280;4073;42.626;25.386;2023-09-12T02:56:12;97406.78;;;12.99;100.00
8061;BME280;4073;42.626;25.386;2023-09-12T02:58:37;97411.03;;;13.05;100.00
8061;BME280;4073;42.626;25.386;2023-09-12T03:01:03;97405.94;;;13.09;100.00
8061;BME280;4073;42.626;25.386;2023-09-12T03:03:31;97412.84;;;13.15;100.00
8061;BME280;4073;42.626;25.386;2023-09-12T03:05:58;97414.19;;;13.17;100.00
8061;BME280;4073;42.626;25.386;2023-09-12T03:08:24;97414.94;;;13.23;100.00
8061;BME280;4073;42.626;25.386;2023-09-12T03:10:56;97413.53;;;13.30;100.00
8061;BME280;4073;42.626;25.386;2023-09-12T03:13:25;97413.19;;;13.37;100.00
8061;BME280;4073;42.626;25.386;2023-09-12T03:15:51;97421.19;;;13.42;100.00
8061;BME280;4073;42.626;25.386;2023-09-12T03:18:16;97409.69;;;13.36;100.00
8061;BME280;4073;42.626;25.386;2023-09-12T03:20:42;97410.25;;;13.33;100.00
8061;BME280;4073;42.626;25.386;2023-09-12T03:23:07;97415.63;;;13.33;100.00
8061;BME280;4073;42.626;25.386;2023-09-12T03:25:36;97411.91;;;13.29;100.00
8061;BME280;4073;42.626;25.386;2023-09-12T03:28:04;97406.53;;;13.29;100.00
8061;BME280;4073;42.626;25.386;2023-09-12T03:30:29;97406.25;;;13.31;100.00
8061;BME280;4073;42.626;25.386;2023-09-12T03:32:54;97418.38;;;13.28;100.00
8061;BME280;4073;42.626;25.386;2023-09-12T03:35:20;97411.16;;;13.24;100.00
8061;BME280;4073;42.626;25.386;2023-09-12T03:37:45;97411.72;;;13.21;100.00
8061;BME280;4073;42.626;25.386;2023-09-12T03:40:11;97423.81;;;13.18;100.00
8061;BME280;4073;42.626;25.386;2023-09-12T03:42:37;97422.81;;;13.09;100.00
8061;BME280;4073;42.626;25.386;2023-09-12T03:45:02;97412.97;;;12.99;100.00
8061;BME280;4073;42.626;25.386;2023-09-12T03:47:29;97420.47;;;13.02;100.00
8061;BME280;4073;42.626;25.386;2023-09-12T03:49:54;97425.31;;;12.95;100.00
8061;BME280;4073;42.626;25.386;2023-09-12T03:52:20;97429.94;;;12.90;100.00
8061;BME280;4073;42.626;25.386;2023-09-12T03:54:45;97433.25;;;12.77;100.00
8061;BME280;4073;42.626;25.386;2023-09-12T03:57:10;97430.13;;;12.60;100.00
8061;BME280;4073;42.626;25.386;2023-09-12T03:59:36;97423.69;;;12.61;100.00
8061;BME280;4073;42.626;25.386;2023-09-12T04:02:02;97436.53;;;12.64;100.00
8061;BME280;4073;42.626;25.386;2023-09-12T04:04:28;97422.03;;;12.65;100.00
8061;BME280;4073;42.626;25.386;2023-09-12T04:06:53;97427.72;;;12.58;100.00
8061;BME280;4073;42.626;25.386;2023-09-12T04:09:20;97431.72;;;12.66;100.00
8061;BME280;4073;42.626;25.386;2023-09-12T04:11:46;97425.25;;;12.67;100.00
8061;BME280;4073;42.626;25.386;2023-09-12T04:14:12;97431.38;;;12.72;100.00
8061;BME280;4073;42.626;25.386;2023-09-12T04:16:37;97432.44;;;12.76;100.00
8061;BME280;4073;42.626;25.386;2023-09-12T04:19:03;97427.56;;;12.83;100.00
8061;BME280;4073;42.626;25.386;2023-09-12T04:21:29;97431.28;;;12.87;100.00
8061;BME280;4073;42.626;25.386;2023-09-12T04:23:54;97424.09;;;12.83;100.00
8061;BME280;4073;42.626;25.386;2023-09-12T04:26:20;97423.00;;;12.84;100.00
8061;BME280;4073;42.626;25.386;2023-09-12T04:28:48;97418.91;;;12.91;100.00
8061;BME280;4073;42.626;25.386;2023-09-12T04:31:13;97420.03;;;13.24;100.00
8061;BME280;4073;42.626;25.386;2023-09-12T04:33:39;97423.47;;;13.53;100.00
8061;BME280;4073;42.626;25.386;2023-09-12T04:36:04;97416.13;;;14.11;100.00
8061;BME280;4073;42.626;25.386;2023-09-12T04:38:30;97411.31;;;14.87;96.27
8061;BME280;4073;42.626;25.386;2023-09-12T04:41:00;97409.59;;;16.01;88.71
8061;BME280;4073;42.626;25.386;2023-09-12T04:43:31;97418.34;;;16.60;83.60
8061;BME280;4073;42.626;25.386;2023-09-12T04:45:57;97417.88;;;16.80;83.42
8061;BME280;4073;42.626;25.386;2023-09-12T04:48:22;97424.50;;;16.74;84.14
8061;BME280;4073;42.626;25.386;2023-09-12T04:50:48;97428.44;;;16.68;85.70
8061;BME280;4073;42.626;25.386;2023-09-12T04:53:14;97422.06;;;16.51;86.65
8061;BME280;4073;42.626;25.386;2023-09-12T04:55:39;97426.94;;;16.49;88.51
8061;BME280;4073;42.626;25.386;2023-09-12T04:58:05;97439.97;;;16.47;89.39
8061;BME280;4073;42.626;25.386;2023-09-12T05:00:32;97430.63;;;16.53;89.89
8061;BME280;4073;42.626;25.386;2023-09-12T05:02:58;97438.94;;;16.56;90.05
8061;BME280;4073;42.626;25.386;2023-09-12T05:05:23;97439.75;;;16.57;90.25
8061;BME280;4073;42.626;25.386;2023-09-12T05:07:49;97435.13;;;16.71;90.44
8061;BME280;4073;42.626;25.386;2023-09-12T05:10:16;97436.78;;;16.80;90.01
8061;BME280;4073;42.626;25.386;2023-09-12T05:12:42;97439.31;;;16.99;90.22
8061;BME280;4073;42.626;25.386;2023-09-12T05:15:07;97442.75;;;17.13;88.96
8061;BME280;4073;42.626;25.386;2023-09-12T05:17:33;97438.03;;;17.40;87.83
8061;BME280;4073;42.626;25.386;2023-09-12T05:19:58;97431.84;;;17.62;86.94
8061;BME280;4073;42.626;25.386;2023-09-12T05:22:23;97425.06;;;17.73;87.17
8061;BME280;4073;42.626;25.386;2023-09-12T05:24:49;97428.00;;;17.93;86.59
8061;BME280;4073;42.626;25.386;2023-09-12T05:27:14;97423.78;;;18.10;85.64
8061;BME280;4073;42.626;25.386;2023-09-12T05:29:40;97417.56;;;18.18;84.46
8061;BME280;4073;42.626;25.386;2023-09-12T05:32:05;97421.84;;;18.49;83.30
8061;BME280;4073;42.626;25.386;2023-09-12T05:34:31;97422.66;;;18.67;81.55
8061;BME280;4073;42.626;25.386;2023-09-12T05:36:57;97407.88;;;18.90;80.51
8061;BME280;4073;42.626;25.386;2023-09-12T05:39:22;97424.56;;;19.09;79.83
8061;BME280;4073;42.626;25.386;2023-09-12T05:41:48;97423.50;;;19.35;78.12
8061;BME280;4073;42.626;25.386;2023-09-12T05:44:14;97426.59;;;19.63;76.69
8061;BME280;4073;42.626;25.386;2023-09-12T05:46:45;97423.34;;;19.86;74.73
8061;BME280;4073;42.626;25.386;2023-09-12T05:49:11;97423.72;;;20.14;73.92
8061;BME280;4073;42.626;25.386;2023-09-12T05:51:36;97416.91;;;20.37;72.10
8061;BME280;4073;42.626;25.386;2023-09-12T05:54:01;97425.22;;;20.61;70.48
8061;BME280;4073;42.626;25.386;2023-09-12T05:56:28;97426.84;;;20.83;69.07
8061;BME280;4073;42.626;25.386;2023-09-12T05:58:54;97424.63;;;21.05;68.39
8061;BME280;4073;42.626;25.386;2023-09-12T06:01:19;97415.50;;;21.22;67.12
8061;BME280;4073;42.626;25.386;2023-09-12T06:03:44;97414.56;;;21.38;66.21
8061;BME280;4073;42.626;25.386;2023-09-12T06:06:10;97414.84;;;21.57;65.08
8061;BME280;4073;42.626;25.386;2023-09-12T06:08:35;97416.97;;;21.84;63.61
8061;BME280;4073;42.626;25.386;2023-09-12T06:11:01;97415.28;;;21.92;63.10
8061;BME280;4073;42.626;25.386;2023-09-12T06:13:26;97424.38;;;22.20;62.19
8061;BME280;4073;42.626;25.386;2023-09-12T06:15:51;97432.56;;;22.44;60.71
8061;BME280;4073;42.626;25.386;2023-09-12T06:18:17;97426.78;;;22.57;59.55
8061;BME280;4073;42.626;25.386;2023-09-12T06:20:43;97424.97;;;22.73;58.76
8061;BME280;4073;42.626;25.386;2023-09-12T06:23:09;97424.09;;;22.97;58.44
8061;BME280;4073;42.626;25.386;2023-09-12T06:25:35;97431.31;;;23.17;57.25
8061;BME280;4073;42.626;25.386;2023-09-12T06:28:01;97422.72;;;23.43;57.17
8061;BME280;4073;42.626;25.386;2023-09-12T06:30:26;97434.94;;;23.76;54.58
8061;BME280;4073;42.626;25.386;2023-09-12T06:32:51;97427.78;;;23.99;53.61
8061;BME280;4073;42.626;25.386;2023-09-12T06:35:17;97423.13;;;24.15;53.32
8061;BME280;4073;42.626;25.386;2023-09-12T06:37:43;97414.38;;;24.25;52.74
8061;BME280;4073;42.626;25.386;2023-09-12T06:40:09;97426.34;;;24.67;51.78
8061;BME280;4073;42.626;25.386;2023-09-12T06:42:34;97430.44;;;24.92;50.39
8061;BME280;4073;42.626;25.386;2023-09-12T06:45:00;97429.66;;;25.11;49.65
8061;BME280;4073;42.626;25.386;2023-09-12T06:47:25;97428.78;;;25.26;49.57
8061;BME280;4073;42.626;25.386;2023-09-12T06:49:51;97436.00;;;25.34;49.03
8061;BME280;4073;42.626;25.386;2023-09-12T06:52:16;97432.34;;;25.65;48.29
8061;BME280;4073;42.626;25.386;2023-09-12T06:54:41;97431.25;;;25.69;47.16
8061;BME280;4073;42.626;25.386;2023-09-12T06:57:07;97439.38;;;25.85;47.18
8061;BME280;4073;42.626;25.386;2023-09-12T06:59:32;97438.59;;;26.07;45.85
8061;BME280;4073;42.626;25.386;2023-09-12T07:01:58;97434.72;;;26.30;45.46
8061;BME280;4073;42.626;25.386;2023-09-12T07:04:24;97437.88;;;26.32;45.42
8061;BME280;4073;42.626;25.386;2023-09-12T07:06:50;97431.00;;;26.68;43.79
8061;BME280;4073;42.626;25.386;2023-09-12T07:09:16;97438.88;;;26.69;43.66
8061;BME280;4073;42.626;25.386;2023-09-12T07:11:42;97433.66;;;26.87;43.20
8061;BME280;4073;42.626;25.386;2023-09-12T07:14:11;97411.44;;;26.95;42.41
8061;BME280;4073;42.626;25.386;2023-09-12T07:16:37;97433.84;;;27.27;41.93
8061;BME280;4073;42.626;25.386;2023-09-12T07:19:02;97432.31;;;27.29;41.60
8061;BME280;4073;42.626;25.386;2023-09-12T07:21:29;97428.09;;;27.39;40.98
8061;BME280;4073;42.626;25.386;2023-09-12T07:23:55;97424.38;;;27.54;41.13
8061;BME280;4073;42.626;25.386;2023-09-12T07:26:20;97417.16;;;27.79;39.93
8061;BME280;4073;42.626;25.386;2023-09-12T07:28:46;97423.56;;;27.87;39.37
8061;BME280;4073;42.626;25.386;2023-09-12T07:31:11;97432.47;;;27.80;39.71
8061;BME280;4073;42.626;25.386;2023-09-12T07:33:37;97431.47;;;27.92;39.99
8061;BME280;4073;42.626;25.386;2023-09-12T07:36:02;97431.69;;;28.16;39.53
8061;BME280;4073;42.626;25.386;2023-09-12T07:38:28;97433.44;;;28.35;39.14
8061;BME280;4073;42.626;25.386;2023-09-12T07:40:56;97441.06;;;28.52;38.92
8061;BME280;4073;42.626;25.386;2023-09-12T07:43:21;97431.06;;;28.80;38.14
8061;BME280;4073;42.626;25.386;2023-09-12T07:45:46;97440.44;;;28.76;37.41
8061;BME280;4073;42.626;25.386;2023-09-12T07:48:12;97438.34;;;29.16;37.39
8061;BME280;4073;42.626;25.386;2023-09-12T07:50:37;97435.72;;;29.41;36.61
8061;BME280;4073;42.626;25.386;2023-09-12T07:53:07;97435.78;;;29.51;36.35
8061;BME280;4073;42.626;25.386;2023-09-12T07:55:38;97421.22;;;29.54;35.94
8061;BME280;4073;42.626;25.386;2023-09-12T07:58:18;97431.53;;;29.64;35.83
8061;BME280;4073;42.626;25.386;2023-09-12T08:00:49;97433.94;;;29.98;35.36
8061;BME280;4073;42.626;25.386;2023-09-12T08:03:15;97426.91;;;30.14;34.69
8061;BME280;4073;42.626;25.386;2023-09-12T08:05:40;97425.34;;;30.24;33.93
8061;BME280;4073;42.626;25.386;2023-09-12T08:08:06;97427.72;;;30.50;33.54
8061;BME280;4073;42.626;25.386;2023-09-12T08:10:31;97421.41;;;30.56;33.84
8061;BME280;4073;42.626;25.386;2023-09-12T08:12:57;97424.94;;;30.60;33.29
8061;BME280;4073;42.626;25.386;2023-09-12T08:15:22;97411.53;;;30.59;33.06
8061;BME280;4073;42.626;25.386;2023-09-12T08:17:48;97413.13;;;30.81;33.01
8061;BME280;4073;42.626;25.386;2023-09-12T08:20:17;97412.28;;;30.94;32.71
8061;BME280;4073;42.626;25.386;2023-09-12T08:22:42;97430.84;;;30.69;32.56
8061;BME280;4073;42.626;25.386;2023-09-12T08:25:08;97414.31;;;30.76;32.69
8061;BME280;4073;42.626;25.386;2023-09-12T08:27:35;97417.06;;;30.87;32.86
8061;BME280;4073;42.626;25.386;2023-09-12T08:30:01;97418.59;;;31.02;32.27
8061;BME280;4073;42.626;25.386;2023-09-12T08:32:26;97418.63;;;30.95;32.29
8061;BME280;4073;42.626;25.386;2023-09-12T08:34:52;97414.59;;;31.20;31.95
8061;BME280;4073;42.626;25.386;2023-09-12T08:37:17;97415.41;;;31.07;31.82
8061;BME280;4073;42.626;25.386;2023-09-12T08:39:44;97410.56;;;31.46;31.56
8061;BME280;4073;42.626;25.386;2023-09-12T08:42:14;97413.22;;;31.70;31.50
8061;BME280;4073;42.626;25.386;2023-09-12T08:44:41;97402.50;;;31.83;30.74
8061;BME280;4073;42.626;25.386;2023-09-12T08:47:08;97400.91;;;31.85;30.85
8061;BME280;4073;42.626;25.386;2023-09-12T08:49:35;97405.69;;;31.81;30.48
8061;BME280;4073;42.626;25.386;2023-09-12T08:52:03;97405.06;;;32.15;30.08
8061;BME280;4073;42.626;25.386;2023-09-12T08:54:29;97400.50;;;31.90;29.98
8061;BME280;4073;42.626;25.386;2023-09-12T08:56:54;97398.13;;;31.89;29.77
8061;BME280;4073;42.626;25.386;2023-09-12T08:59:20;97398.94;;;31.86;29.99
8061;BME280;4073;42.626;25.386;2023-09-12T09:01:46;97404.66;;;32.16;29.83
8061;BME280;4073;42.626;25.386;2023-09-12T09:04:12;97401.03;;;32.23;29.87
8061;BME280;4073;42.626;25.386;2023-09-12T09:06:40;97402.41;;;31.97;29.76
8061;BME280;4073;42.626;25.386;2023-09-12T09:09:07;97397.38;;;32.36;29.59
8061;BME280;4073;42.626;25.386;2023-09-12T09:11:34;97397.53;;;32.19;29.94
8061;BME280;4073;42.626;25.386;2023-09-12T09:14:01;97396.56;;;32.39;29.62
8061;BME280;4073;42.626;25.386;2023-09-12T09:16:28;97397.56;;;32.63;29.89
8061;BME280;4073;42.626;25.386;2023-09-12T09:21:21;97397.97;;;32.61;29.51
8061;BME280;4073;42.626;25.386;2023-09-12T09:23:49;97395.41;;;32.40;29.25
8061;BME280;4073;42.626;25.386;2023-09-12T09:26:15;97383.97;;;32.31;29.37
8061;BME280;4073;42.626;25.386;2023-09-12T09:28:40;97379.56;;;32.41;29.22
8061;BME280;4073;42.626;25.386;2023-09-12T09:31:13;97383.91;;;32.82;28.32
8061;BME280;4073;42.626;25.386;2023-09-12T09:33:40;97384.25;;;32.91;28.91
8061;BME280;4073;42.626;25.386;2023-09-12T09:36:07;97381.09;;;32.89;28.79
8061;BME280;4073;42.626;25.386;2023-09-12T09:38:34;97378.41;;;32.79;28.91
8061;BME280;4073;42.626;25.386;2023-09-12T09:41:03;97377.53;;;32.89;28.45
8061;BME280;4073;42.626;25.386;2023-09-12T09:43:31;97371.09;;;32.99;28.18
8061;BME280;4073;42.626;25.386;2023-09-12T09:45:57;97371.53;;;32.57;28.23
8061;BME280;4073;42.626;25.386;2023-09-12T09:48:24;97369.00;;;32.69;27.90
8061;BME280;4073;42.626;25.386;2023-09-12T09:50:52;97374.00;;;32.88;27.88
8061;BME280;4073;42.626;25.386;2023-09-12T09:53:36;97363.53;;;32.66;28.07
8061;BME280;4073;42.626;25.386;2023-09-12T09:56:13;97365.00;;;32.30;28.46
8061;BME280;4073;42.626;25.386;2023-09-12T09:58:46;97375.41;;;32.15;28.51
8061;BME280;4073;42.626;25.386;2023-09-12T10:01:15;97357.09;;;32.32;28.91
8061;BME280;4073;42.626;25.386;2023-09-12T10:03:42;97365.41;;;32.76;28.48
8061;BME280;4073;42.626;25.386;2023-09-12T10:06:09;97364.56;;;32.79;28.24
8061;BME280;4073;42.626;25.386;2023-09-12T10:08:36;97357.38;;;32.88;28.51
8061;BME280;4073;42.626;25.386;2023-09-12T10:11:03;97360.69;;;33.10;28.18
8061;BME280;4073;42.626;25.386;2023-09-12T10:13:29;97352.47;;;33.03;28.36
8061;BME280;4073;42.626;25.386;2023-09-12T10:16:00;97362.09;;;33.25;27.72
8061;BME280;4073;42.626;25.386;2023-09-12T10:18:28;97358.25;;;33.15;28.13
8061;BME280;4073;42.626;25.386;2023-09-12T10:21:06;97352.81;;;33.08;28.32
8061;BME280;4073;42.626;25.386;2023-09-12T10:23:43;97344.00;;;33.17;28.23
8061;BME280;4073;42.626;25.386;2023-09-12T10:26:13;97346.84;;;33.10;28.46
8061;BME280;4073;42.626;25.386;2023-09-12T10:28:41;97346.56;;;33.31;27.82
8061;BME280;4073;42.626;25.386;2023-09-12T10:31:09;97352.56;;;33.26;28.10
8061;BME280;4073;42.626;25.386;2023-09-12T10:33:36;97350.91;;;33.35;27.78
8061;BME280;4073;42.626;25.386;2023-09-12T10:36:03;97332.41;;;33.55;27.76
8061;BME280;4073;42.626;25.386;2023-09-12T10:38:30;97342.81;;;33.74;27.51
8061;BME280;4073;42.626;25.386;2023-09-12T10:40:59;97338.56;;;33.96;27.17
8061;BME280;4073;42.626;25.386;2023-09-12T10:43:26;97326.56;;;34.26;26.73
8061;BME280;4073;42.626;25.386;2023-09-12T10:45:52;97315.38;;;34.76;26.51
8061;BME280;4073;42.626;25.386;2023-09-12T10:48:18;97319.22;;;35.40;25.66
8061;BME280;4073;42.626;25.386;2023-09-12T10:50:44;97323.81;;;36.34;24.90
8061;BME280;4073;42.626;25.386;2023-09-12T10:53:12;97329.44;;;37.20;23.76
8061;BME280;4073;42.626;25.386;2023-09-12T10:55:39;97307.88;;;37.74;23.24
8061;BME280;4073;42.626;25.386;2023-09-12T10:58:07;97320.16;;;38.01;23.20
8061;BME280;4073;42.626;25.386;2023-09-12T11:00:33;97321.28;;;38.63;22.28
8061;BME280;4073;42.626;25.386;2023-09-12T11:05:52;97321.63;;;38.65;22.21
8061;BME280;4073;42.626;25.386;2023-09-12T11:08:19;97308.41;;;38.31;22.28
8061;BME280;4073;42.626;25.386;2023-09-12T11:11:17;97318.59;;;37.88;22.82
8061;BME280;4073;42.626;25.386;2023-09-12T11:13:47;97305.50;;;37.47;22.86
8061;BME280;4073;42.626;25.386;2023-09-12T11:16:14;97302.56;;;36.85;23.61
8061;BME280;4073;42.626;25.386;2023-09-12T11:21:44;97289.03;;;35.58;25.24
8061;BME280;4073;42.626;25.386;2023-09-12T11:24:10;97287.25;;;35.13;25.56
8061;BME280;4073;42.626;25.386;2023-09-12T11:26:36;97287.41;;;34.86;25.92
8061;BME280;4073;42.626;25.386;2023-09-12T11:29:16;97282.19;;;34.69;25.95
8061;BME280;4073;42.626;25.386;2023-09-12T11:32:00;97272.34;;;34.45;26.26
8061;BME280;4073;42.626;25.386;2023-09-12T11:34:28;97270.13;;;34.33;26.25
8061;BME280;4073;42.626;25.386;2023-09-12T11:36:58;97285.69;;;34.26;26.64
8061;BME280;4073;42.626;25.386;2023-09-12T11:39:32;97278.53;;;34.06;26.90
8061;BME280;4073;42.626;25.386;2023-09-12T11:41:59;97279.63;;;34.12;26.93
8061;BME280;4073;42.626;25.386;2023-09-12T11:44:24;97275.41;;;34.04;27.10
8061;BME280;4073;42.626;25.386;2023-09-12T11:46:52;97277.03;;;34.01;27.38
8061;BME280;4073;42.626;25.386;2023-09-12T11:49:18;97271.25;;;33.66;27.05
8061;BME280;4073;42.626;25.386;2023-09-12T11:51:54;97274.81;;;33.40;27.71
8061;BME280;4073;42.626;25.386;2023-09-12T11:54:24;97265.22;;;33.18;27.95
8061;BME280;4073;42.626;25.386;2023-09-12T11:56:50;97265.25;;;33.14;27.86
8061;BME280;4073;42.626;25.386;2023-09-12T11:59:22;97259.28;;;33.16;28.11
8061;BME280;4073;42.626;25.386;2023-09-12T12:01:48;97266.25;;;33.27;27.65
8061;BME280;4073;42.626;25.386;2023-09-12T12:04:14;97266.16;;;33.34;27.81
8061;BME280;4073;42.626;25.386;2023-09-12T12:06:40;97254.03;;;33.25;27.50
8061;BME280;4073;42.626;25.386;2023-09-12T12:09:06;97250.34;;;33.31;27.62
8061;BME280;4073;42.626;25.386;2023-09-12T12:11:31;97253.13;;;33.31;27.95
8061;BME280;4073;42.626;25.386;2023-09-12T12:13:57;97254.75;;;33.29;28.03
8061;BME280;4073;42.626;25.386;2023-09-12T12:16:25;97247.78;;;33.47;27.32
8061;BME280;4073;42.626;25.386;2023-09-12T12:18:51;97250.34;;;33.31;27.26
8061;BME280;4073;42.626;25.386;2023-09-12T12:21:20;97240.19;;;32.95;27.94
8061;BME280;4073;42.626;25.386;2023-09-12T12:23:46;97237.69;;;32.70;28.58
8061;BME280;4073;42.626;25.386;2023-09-12T12:26:11;97237.75;;;32.67;28.60
8061;BME280;4073;42.626;25.386;2023-09-12T12:28:37;97242.97;;;32.61;28.59
8061;BME280;4073;42.626;25.386;2023-09-12T12:31:03;97238.38;;;32.48;28.82
8061;BME280;4073;42.626;25.386;2023-09-12T12:33:28;97230.84;;;32.11;29.13
8061;BME280;4073;42.626;25.386;2023-09-12T12:36:03;97233.09;;;32.23;29.31
8061;BME280;4073;42.626;25.386;2023-09-12T12:38:37;97223.59;;;32.24;29.16
8061;BME280;4073;42.626;25.386;2023-09-12T12:41:02;97237.69;;;32.37;28.94
8061;BME280;4073;42.626;25.386;2023-09-12T12:43:28;97229.72;;;32.46;28.54
8061;BME280;4073;42.626;25.386;2023-09-12T12:45:58;97232.56;;;32.39;28.97
8061;BME280;4073;42.626;25.386;2023-09-12T12:48:34;97233.69;;;32.00;28.93
8061;BME280;4073;42.626;25.386;2023-09-12T12:51:01;97229.75;;;32.02;29.36
8061;BME280;4073;42.626;25.386;2023-09-12T12:53:41;97226.19;;;32.01;29.22
8061;BME280;4073;42.626;25.386;2023-09-12T12:56:07;97229.63;;;32.12;29.27
8061;BME280;4073;42.626;25.386;2023-09-12T12:58:33;97226.09;;;32.12;29.29
8061;BME280;4073;42.626;25.386;2023-09-12T13:00:58;97222.88;;;32.17;29.35
8061;BME280;4073;42.626;25.386;2023-09-12T13:03:24;97200.66;;;31.86;29.23
8061;BME280;4073;42.626;25.386;2023-09-12T13:05:49;97217.66;;;32.22;29.06
8061;BME280;4073;42.626;25.386;2023-09-12T13:08:15;97207.91;;;32.11;29.14
8061;BME280;4073;42.626;25.386;2023-09-12T13:10:40;97213.34;;;32.21;29.52
8061;BME280;4073;42.626;25.386;2023-09-12T13:13:08;97206.66;;;32.19;28.98
8061;BME280;4073;42.626;25.386;2023-09-12T13:15:33;97211.41;;;32.18;29.24
8061;BME280;4073;42.626;25.386;2023-09-12T13:17:58;97204.63;;;32.23;29.37
8061;BME280;4073;42.626;25.386;2023-09-12T13:20:24;97214.78;;;32.36;29.15
8061;BME280;4073;42.626;25.386;2023-09-12T13:22:49;97208.72;;;32.48;28.88